createdAt,value
2023-04-16T00:02:01.511Z,98842.31
2023-04-16T00:04:28.511Z,98839.06
2023-04-16T00:06:55.448Z,98840.75
2023-04-16T00:09:22.399Z,98838.38
2023-04-16T00:11:49.244Z,98841.00
2023-04-16T00:14:16.145Z,98836.97
2023-04-16T00:16:43.004Z,98839.34
2023-04-16T00:19:10.126Z,98849.69
2023-04-16T00:21:37.117Z,98844.44
2023-04-16T00:24:03.983Z,98845.09
2023-04-16T00:26:30.934Z,98854.72
2023-04-16T00:28:57.774Z,98844.91
2023-04-16T00:31:34.170Z,98850.53
2023-04-16T00:34:01.086Z,98845.06
2023-04-16T00:36:28.813Z,98847.31
2023-04-16T00:38:56.760Z,98850.78
2023-04-16T00:41:23.931Z,98849.81
2023-04-16T00:43:51.568Z,98860.03
2023-04-16T00:46:21.895Z,98854.50
2023-04-16T00:48:49.641Z,98855.56
2023-04-16T00:51:20.205Z,98851.78
2023-04-16T00:53:47.558Z,98852.59
2023-04-16T00:56:14.723Z,98855.00
2023-04-16T00:58:41.614Z,98849.97
2023-04-16T01:01:08.691Z,98856.44
2023-04-16T01:03:41.080Z,98845.53
2023-04-16T01:06:08.330Z,98857.44
2023-04-16T01:08:35.405Z,98859.41
2023-04-16T01:11:02.560Z,98856.59
2023-04-16T01:13:30.219Z,98860.03
2023-04-16T01:15:57.234Z,98856.03
2023-04-16T01:18:25.916Z,98856.53
2023-04-16T01:20:52.927Z,98845.22
2023-04-16T01:23:19.944Z,98865.59
2023-04-16T01:25:47.154Z,98861.44
2023-04-16T01:28:14.239Z,98865.41
2023-04-16T01:30:41.492Z,98871.56
2023-04-16T01:33:12.813Z,98864.72
2023-04-16T01:35:41.136Z,98864.78
2023-04-16T01:38:09.599Z,98873.81
2023-04-16T01:40:37.590Z,98857.78
2023-04-16T01:43:04.921Z,98868.06
2023-04-16T01:45:34.787Z,98872.31
2023-04-16T01:48:02.141Z,98872.47
2023-04-16T01:50:30.940Z,98875.69
2023-04-16T01:52:57.757Z,98870.66
2023-04-16T01:55:24.723Z,98869.66
2023-04-16T01:57:51.565Z,98864.63
2023-04-16T02:00:18.494Z,98873.28
2023-04-16T02:02:46.374Z,98862.75
2023-04-16T02:05:13.317Z,98867.84
2023-04-16T02:07:40.130Z,98847.88
2023-04-16T02:10:08.850Z,98879.03
2023-04-16T02:12:35.664Z,98866.31
2023-04-16T02:15:03.344Z,98858.91
2023-04-16T02:17:30.248Z,98869.13
2023-04-16T02:19:57.092Z,98868.00
2023-04-16T02:22:23.910Z,98854.44
2023-04-16T02:24:51.177Z,98865.50
2023-04-16T02:27:17.978Z,98870.66
2023-04-16T02:29:44.806Z,98874.00
2023-04-16T02:32:11.909Z,98870.38
2023-04-16T02:34:40.279Z,98869.28
2023-04-16T02:37:07.197Z,98878.00
2023-04-16T02:39:34.100Z,98868.56
2023-04-16T02:42:02.505Z,98875.28
2023-04-16T02:44:29.849Z,98879.78
2023-04-16T02:46:56.689Z,98871.78
2023-04-16T02:49:23.863Z,98889.38
2023-04-16T02:51:50.714Z,98888.34
2023-04-16T02:54:17.536Z,98881.75
2023-04-16T02:56:44.333Z,98881.00
2023-04-16T02:59:11.291Z,98869.25
2023-04-16T03:01:38.309Z,98881.41
2023-04-16T03:04:05.423Z,98879.84
2023-04-16T03:06:32.696Z,98886.28
2023-04-16T03:08:59.581Z,98888.09
2023-04-16T03:11:26.378Z,98886.28
2023-04-16T03:13:53.847Z,98891.47
2023-04-16T03:16:20.725Z,98889.03
2023-04-16T03:18:47.589Z,98886.44
2023-04-16T03:21:14.382Z,98878.59
2023-04-16T03:23:41.276Z,98894.75
2023-04-16T03:26:08.075Z,98891.34
2023-04-16T03:28:34.895Z,98896.28
2023-04-16T03:31:01.725Z,98902.31
2023-04-16T03:33:28.572Z,98894.69
2023-04-16T03:35:59.056Z,98894.69
2023-04-16T03:38:26.607Z,98898.25
2023-04-16T03:40:53.488Z,98902.16
2023-04-16T03:43:20.608Z,98892.72
2023-04-16T03:45:47.838Z,98905.56
2023-04-16T03:48:14.727Z,98909.94
2023-04-16T03:50:47.208Z,98912.50
2023-04-16T03:53:14.246Z,98873.84
2023-04-16T03:55:41.937Z,98910.19
2023-04-16T03:58:09.155Z,98917.06
2023-04-16T04:00:36.148Z,98908.66
2023-04-16T04:03:03.270Z,98907.59
2023-04-16T04:05:30.307Z,98904.91
2023-04-16T04:07:57.166Z,98911.75
2023-04-16T04:10:23.979Z,98913.38
2023-04-16T04:12:50.765Z,98914.25
2023-04-16T04:15:17.722Z,98911.75
2023-04-16T04:17:44.552Z,98885.16
2023-04-16T04:20:12.238Z,98918.88
2023-04-16T04:22:39.078Z,98922.63
2023-04-16T04:25:06.417Z,98924.28
2023-04-16T04:27:33.232Z,98927.59
2023-04-16T04:30:00.022Z,98927.81
2023-04-16T04:32:26.881Z,98935.47
2023-04-16T04:34:53.699Z,98918.78
2023-04-16T04:37:21.039Z,98930.44
2023-04-16T04:39:47.968Z,98935.22
2023-04-16T04:42:18.235Z,98934.28
2023-04-16T04:44:46.020Z,98944.78
2023-04-16T04:47:13.236Z,98938.53
2023-04-16T04:49:40.456Z,98940.63
2023-04-16T04:52:08.108Z,98953.84
2023-04-16T04:54:34.947Z,98953.19
2023-04-16T04:57:01.897Z,98948.97
2023-04-16T04:59:28.915Z,98951.19
2023-04-16T05:01:55.757Z,98950.59
2023-04-16T05:04:22.571Z,98957.69
2023-04-16T05:06:49.384Z,98955.94
2023-04-16T05:09:16.360Z,98969.50
2023-04-16T05:11:43.248Z,98968.69
2023-04-16T05:14:10.086Z,98968.56
2023-04-16T05:16:38.025Z,98962.75
2023-04-16T05:19:05.078Z,98973.59
2023-04-16T05:21:31.872Z,98980.84
2023-04-16T05:23:59.138Z,98984.84
2023-04-16T05:26:26.101Z,98988.66
2023-04-16T05:28:53.011Z,98986.00
2023-04-16T05:31:19.963Z,98990.75
2023-04-16T05:33:46.894Z,98990.53
2023-04-16T05:36:13.689Z,98979.59
2023-04-16T05:38:40.575Z,98986.38
2023-04-16T05:41:07.406Z,98986.44
2023-04-16T05:43:34.213Z,98993.34
2023-04-16T05:46:01.097Z,99001.25
2023-04-16T05:48:27.950Z,99004.59
2023-04-16T05:50:54.754Z,99001.25
2023-04-16T05:53:22.138Z,99012.28
2023-04-16T05:55:48.992Z,98996.72
2023-04-16T05:58:15.842Z,99002.53
2023-04-16T06:00:42.662Z,99011.34
2023-04-16T06:03:09.646Z,99017.03
2023-04-16T06:05:36.685Z,99022.44
2023-04-16T06:08:03.491Z,99023.22
2023-04-16T06:10:30.409Z,99019.84
2023-04-16T06:12:57.228Z,99013.44
2023-04-16T06:15:24.036Z,99008.09
2023-04-16T06:17:51.222Z,99020.03
2023-04-16T06:20:18.180Z,99015.66
2023-04-16T06:22:45.039Z,99020.25
2023-04-16T06:25:11.938Z,99028.88
2023-04-16T06:27:38.811Z,99024.31
2023-04-16T06:30:12.184Z,99032.25
2023-04-16T06:32:39.161Z,99032.63
2023-04-16T06:35:06.834Z,99024.88
2023-04-16T06:37:33.619Z,99024.84
2023-04-16T06:40:00.429Z,99028.88
2023-04-16T06:42:27.518Z,99033.81
2023-04-16T06:44:54.419Z,99033.75
2023-04-16T06:47:21.417Z,99030.19
2023-04-16T06:49:48.311Z,99034.38
2023-04-16T06:52:15.352Z,99032.91
2023-04-16T06:54:42.204Z,99032.84
2023-04-16T06:57:08.995Z,99042.34
2023-04-16T06:59:36.008Z,99039.13
2023-04-16T07:02:02.864Z,99038.84
2023-04-16T07:04:29.745Z,99044.16
2023-04-16T07:06:56.536Z,99045.97
2023-04-16T07:09:23.367Z,99048.69
2023-04-16T07:11:50.168Z,99047.63
2023-04-16T07:14:17.231Z,99049.31
2023-04-16T07:16:44.066Z,99051.69
2023-04-16T07:19:11.365Z,99056.00
2023-04-16T07:21:38.345Z,99056.38
2023-04-16T07:24:05.323Z,99052.28
2023-04-16T07:26:32.241Z,99056.16
2023-04-16T07:28:59.084Z,99045.97
2023-04-16T07:31:25.946Z,99052.47
2023-04-16T07:33:52.867Z,99049.19
2023-04-16T07:36:19.662Z,99070.50
2023-04-16T07:38:46.462Z,99068.00
2023-04-16T07:41:13.932Z,99066.38
2023-04-16T07:43:40.795Z,99069.16
2023-04-16T07:46:07.854Z,99067.94
2023-04-16T07:48:34.705Z,99074.53
2023-04-16T07:51:01.566Z,99069.34
2023-04-16T07:53:28.410Z,99077.75
2023-04-16T07:55:56.086Z,99078.59
2023-04-16T07:58:22.889Z,99085.31
2023-04-16T08:00:50.990Z,99085.44
2023-04-16T08:03:18.509Z,99085.50
2023-04-16T08:05:45.636Z,99089.75
2023-04-16T08:08:12.447Z,99092.34
2023-04-16T08:10:39.684Z,99085.78
2023-04-16T08:13:06.517Z,99102.53
2023-04-16T08:15:33.356Z,99101.75
2023-04-16T08:18:00.369Z,99107.75
2023-04-16T08:20:27.349Z,99103.25
2023-04-16T08:22:54.860Z,99102.91
2023-04-16T08:25:23.689Z,99111.16
2023-04-16T08:27:50.986Z,99109.56
2023-04-16T08:30:17.911Z,99118.03
2023-04-16T08:32:44.892Z,99118.34
2023-04-16T08:35:12.270Z,99126.75
2023-04-16T08:37:39.072Z,99118.09
2023-04-16T08:40:06.925Z,99124.16
2023-04-16T08:42:40.689Z,99132.97
2023-04-16T08:45:15.798Z,99137.50
2023-04-16T08:47:46.970Z,99135.00
2023-04-16T08:50:22.976Z,99129.13
2023-04-16T08:52:59.130Z,99138.75
2023-04-16T08:55:37.594Z,99132.81
2023-04-16T08:58:16.170Z,99144.69
2023-04-16T09:00:44.159Z,99150.88
2023-04-16T09:03:11.310Z,99145.91
2023-04-16T09:05:39.180Z,99144.91
2023-04-16T09:08:06.935Z,99136.84
2023-04-16T09:10:34.334Z,99146.31
2023-04-16T09:13:01.444Z,99136.84
2023-04-16T09:15:29.408Z,99159.00
2023-04-16T09:17:59.359Z,99162.28
2023-04-16T09:20:26.222Z,99159.25
2023-04-16T09:22:53.144Z,99144.63
2023-04-16T09:25:22.588Z,99162.16
2023-04-16T09:27:52.672Z,99156.88
2023-04-16T09:30:24.995Z,99162.88
2023-04-16T09:33:13.576Z,99161.16
2023-04-16T09:35:51.738Z,99171.50
2023-04-16T09:38:20.362Z,99165.66
2023-04-16T09:40:47.588Z,99167.94
2023-04-16T09:43:17.199Z,99161.47
2023-04-16T09:45:52.257Z,99167.22
2023-04-16T09:48:33.144Z,99170.84
2023-04-16T09:51:01.154Z,99181.97
2023-04-16T09:53:30.706Z,99174.69
2023-04-16T09:56:05.130Z,99181.19
2023-04-16T09:58:32.903Z,99175.16
2023-04-16T10:01:13.198Z,99182.16
2023-04-16T10:03:41.233Z,99185.97
2023-04-16T10:06:15.695Z,99183.41
2023-04-16T10:08:50.399Z,99179.75
2023-04-16T10:11:19.189Z,99186.34
2023-04-16T10:13:46.603Z,99190.78
2023-04-16T10:16:13.695Z,99188.03
2023-04-16T10:18:43.398Z,99188.16
2023-04-16T10:21:12.695Z,99190.06
2023-04-16T10:23:40.561Z,99198.72
2023-04-16T10:26:07.434Z,99200.44
2023-04-16T10:28:35.619Z,99190.09
2023-04-16T10:31:09.168Z,99196.25
2023-04-16T10:33:40.816Z,99192.66
2023-04-16T10:36:12.547Z,99172.47
2023-04-16T10:38:59.738Z,99202.84
2023-04-16T10:41:27.610Z,99197.66
2023-04-16T10:44:09.842Z,99203.63
2023-04-16T10:46:42.564Z,99206.88
2023-04-16T10:49:26.403Z,99209.44
2023-04-16T10:52:14.810Z,99208.59
2023-04-16T10:54:41.684Z,99203.72
2023-04-16T10:57:17.751Z,99208.00
2023-04-16T10:59:45.278Z,99199.56
2023-04-16T11:02:17.867Z,99195.16
2023-04-16T11:04:47.250Z,99196.75
2023-04-16T11:07:18.132Z,99206.31
2023-04-16T11:10:07.760Z,99195.47
2023-04-16T11:12:37.923Z,99213.97
2023-04-16T11:15:09.234Z,99213.25
2023-04-16T11:17:41.053Z,99212.41
2023-04-16T11:20:20.223Z,99215.84
2023-04-16T11:22:52.623Z,99207.75
2023-04-16T11:25:30.414Z,99205.22
2023-04-16T11:27:59.091Z,99212.03
2023-04-16T11:30:38.230Z,99217.28
2023-04-16T11:33:12.193Z,99216.09
2023-04-16T11:35:39.822Z,99209.31
2023-04-16T11:38:07.333Z,99205.75
2023-04-16T11:40:34.851Z,99215.06
2023-04-16T11:43:05.023Z,99221.97
2023-04-16T11:45:31.833Z,99228.56
2023-04-16T11:47:58.769Z,99220.59
2023-04-16T11:50:28.141Z,99220.31
2023-04-16T11:52:57.659Z,99223.25
2023-04-16T11:55:24.834Z,99218.00
2023-04-16T11:57:52.642Z,99231.44
2023-04-16T12:00:23.101Z,99221.59
2023-04-16T12:02:54.688Z,99223.09
2023-04-16T12:05:35.637Z,99222.41
2023-04-16T12:08:06.248Z,99218.72
2023-04-16T12:10:36.301Z,99230.59
2023-04-16T12:13:14.499Z,99201.28
2023-04-16T12:15:53.265Z,99231.31
2023-04-16T12:18:23.217Z,99238.41
2023-04-16T12:20:53.683Z,99231.88
2023-04-16T12:23:34.066Z,99236.97
2023-04-16T12:26:10.575Z,99238.69
2023-04-16T12:28:39.276Z,99237.47
2023-04-16T12:31:07.449Z,99233.44
2023-04-16T12:33:34.358Z,99238.50
2023-04-16T12:36:02.341Z,99241.84
2023-04-16T12:38:29.846Z,99230.59
2023-04-16T12:40:58.253Z,99237.78
2023-04-16T12:43:25.900Z,99232.88
2023-04-16T12:45:53.012Z,99227.69
2023-04-16T12:48:20.019Z,99233.59
2023-04-16T12:50:46.908Z,99229.94
2023-04-16T12:53:13.753Z,99229.84
2023-04-16T12:55:40.663Z,99225.28
2023-04-16T12:58:10.574Z,99233.75
2023-04-16T13:00:39.878Z,99229.38
2023-04-16T13:03:06.769Z,99230.59
2023-04-16T13:05:34.006Z,99239.41
2023-04-16T13:08:01.128Z,99240.50
2023-04-16T13:10:27.999Z,99214.50
2023-04-16T13:12:54.842Z,99229.13
2023-04-16T13:15:21.652Z,99230.81
2023-04-16T13:17:48.546Z,99227.84
2023-04-16T13:20:15.485Z,99233.13
2023-04-16T13:22:42.313Z,99241.44
2023-04-16T13:25:10.253Z,99236.63
2023-04-16T13:27:37.080Z,99235.53
2023-04-16T13:30:04.063Z,99236.47
2023-04-16T13:32:31.207Z,99240.13
2023-04-16T13:34:58.050Z,99245.16
2023-04-16T13:37:24.925Z,99242.00
2023-04-16T13:39:51.775Z,99231.69
2023-04-16T13:42:18.594Z,99237.63
2023-04-16T13:44:48.831Z,99236.63
2023-04-16T13:47:16.053Z,99241.78
2023-04-16T13:49:42.895Z,99232.16
2023-04-16T13:52:09.692Z,99245.75
2023-04-16T13:54:36.498Z,99243.09
2023-04-16T13:57:03.323Z,99240.31
2023-04-16T13:59:30.192Z,99242.00
2023-04-16T14:01:57.677Z,99237.69
2023-04-16T14:04:24.615Z,99241.72
2023-04-16T14:06:51.602Z,99241.03
2023-04-16T14:09:18.488Z,99237.41
2023-04-16T14:11:45.426Z,99227.31
2023-04-16T14:14:12.305Z,99243.22
2023-04-16T14:16:39.219Z,99239.69
2023-04-16T14:19:06.079Z,99236.97
2023-04-16T14:21:32.895Z,99238.69
2023-04-16T14:23:59.692Z,99217.09
2023-04-16T14:26:26.541Z,99237.13
2023-04-16T14:28:53.349Z,99243.09
2023-04-16T14:31:20.784Z,99231.28
2023-04-16T14:33:47.616Z,99232.81
2023-04-16T14:36:14.446Z,99249.97
2023-04-16T14:38:43.181Z,99233.31
2023-04-16T14:41:11.955Z,99225.03
2023-04-16T14:43:41.242Z,99230.16
2023-04-16T14:46:08.103Z,99232.69
2023-04-16T14:48:34.932Z,99231.28
2023-04-16T14:51:01.798Z,99240.50
2023-04-16T14:53:29.071Z,99238.00
2023-04-16T14:55:58.931Z,99243.31
2023-04-16T14:58:26.386Z,99241.50
2023-04-16T15:00:53.576Z,99240.66
2023-04-16T15:03:20.775Z,99245.59
2023-04-16T15:05:54.726Z,99239.47
2023-04-16T15:08:22.750Z,99244.00
2023-04-16T15:10:50.448Z,99244.88
2023-04-16T15:13:17.545Z,99244.78
2023-04-16T15:15:44.613Z,99241.16
2023-04-16T15:18:11.474Z,99242.72
2023-04-16T15:20:38.323Z,99242.72
2023-04-16T15:23:05.160Z,99242.72
2023-04-16T15:25:32.084Z,99242.66
2023-04-16T15:27:59.395Z,99241.81
2023-04-16T15:30:26.395Z,99246.09
2023-04-16T15:32:54.999Z,99247.13
2023-04-16T15:35:22.060Z,99248.16
2023-04-16T15:37:48.898Z,99244.25
2023-04-16T15:40:18.687Z,99249.25
2023-04-16T15:42:45.588Z,99245.44
2023-04-16T15:45:12.418Z,99251.72
2023-04-16T15:47:41.638Z,99249.50
2023-04-16T15:50:09.005Z,99257.03
2023-04-16T15:52:36.429Z,99259.41
2023-04-16T15:55:04.334Z,99256.19
2023-04-16T15:57:31.396Z,99254.94
2023-04-16T16:02:29.778Z,99259.34
2023-04-16T16:04:56.802Z,99254.50
2023-04-16T16:07:25.159Z,99259.78
2023-04-16T16:09:53.064Z,99260.44
2023-04-16T16:12:19.942Z,99251.91
2023-04-16T16:14:46.763Z,99264.59
2023-04-16T16:17:13.589Z,99260.41
2023-04-16T16:19:40.406Z,99249.44
2023-04-16T16:22:07.793Z,99258.63
2023-04-16T16:24:34.633Z,99264.59
2023-04-16T16:27:01.626Z,99258.63
2023-04-16T16:29:28.444Z,99269.69
2023-04-16T16:31:55.305Z,99261.41
2023-04-16T16:34:22.161Z,99273.56
2023-04-16T16:36:49.275Z,99270.91
2023-04-16T16:39:16.405Z,99265.59
2023-04-16T16:41:43.224Z,99270.69
2023-04-16T16:44:10.313Z,99268.97
2023-04-16T16:46:37.264Z,99278.31
2023-04-16T16:49:05.957Z,99271.63
2023-04-16T16:51:33.886Z,99277.72
2023-04-16T16:54:01.040Z,99265.59
2023-04-16T16:56:28.110Z,99279.97
2023-04-16T16:58:54.986Z,99275.66
2023-04-16T17:01:21.829Z,99274.94
2023-04-16T17:03:48.824Z,99279.03
2023-04-16T17:06:15.724Z,99278.91
2023-04-16T17:08:42.582Z,99279.69
2023-04-16T17:11:09.476Z,99274.69
2023-04-16T17:13:36.388Z,99279.09
2023-04-16T17:16:03.276Z,99259.78
2023-04-16T17:18:30.119Z,99284.50
2023-04-16T17:20:56.949Z,99267.44
2023-04-16T17:23:23.855Z,99278.19
2023-04-16T17:25:50.687Z,99274.94
2023-04-16T17:28:17.499Z,99281.69
2023-04-16T17:30:44.837Z,99277.31
2023-04-16T17:33:11.700Z,99280.75
2023-04-16T17:35:40.500Z,99288.53
2023-04-16T17:38:07.337Z,99291.13
2023-04-16T17:40:34.147Z,99293.84
2023-04-16T17:43:00.965Z,99297.94
2023-04-16T17:45:27.896Z,99292.84
2023-04-16T17:47:54.807Z,99297.78
2023-04-16T17:50:21.698Z,99296.94
2023-04-16T17:52:48.654Z,99296.81
2023-04-16T17:55:16.693Z,99292.63
2023-04-16T17:57:44.656Z,99302.78
2023-04-16T18:00:12.519Z,99293.19
2023-04-16T18:02:40.848Z,99296.72
2023-04-16T18:05:09.013Z,99301.47
2023-04-16T18:07:36.472Z,99302.13
2023-04-16T18:10:03.431Z,99306.72
2023-04-16T18:12:30.320Z,99306.59
2023-04-16T18:14:57.651Z,99304.78
2023-04-16T18:17:24.452Z,99303.94
2023-04-16T18:19:51.499Z,99315.84
2023-04-16T18:22:18.316Z,99310.03
2023-04-16T18:24:45.163Z,99315.13
2023-04-16T18:27:12.521Z,99314.13
2023-04-16T18:29:40.502Z,99315.91
2023-04-16T18:32:09.900Z,99321.16
2023-04-16T18:34:38.706Z,99303.75
2023-04-16T18:37:05.567Z,99323.09
2023-04-16T18:39:36.691Z,99328.09
2023-04-16T18:42:03.935Z,99334.25
2023-04-16T18:44:30.832Z,99327.28
2023-04-16T18:46:57.737Z,99341.88
2023-04-16T18:49:25.296Z,99338.50
2023-04-16T18:51:55.673Z,99335.97
2023-04-16T18:54:23.140Z,99340.25
2023-04-16T18:56:49.973Z,99340.16
2023-04-16T18:59:16.816Z,99342.72
2023-04-16T19:01:43.728Z,99347.78
2023-04-16T19:04:10.685Z,99336.75
2023-04-16T19:06:37.566Z,99355.47
2023-04-16T19:09:04.425Z,99348.59
2023-04-16T19:11:31.247Z,99347.63
2023-04-16T19:13:58.165Z,99335.91
2023-04-16T19:16:25.118Z,99356.06
2023-04-16T19:18:52.069Z,99356.91
2023-04-16T19:21:18.883Z,99345.13
2023-04-16T19:23:45.850Z,99361.31
2023-04-16T19:26:12.701Z,99344.47
2023-04-16T19:28:39.684Z,99359.81
2023-04-16T19:31:06.669Z,99363.31
2023-04-16T19:33:33.517Z,99350.59
2023-04-16T19:36:01.703Z,99351.66
2023-04-16T19:38:29.149Z,99361.66
2023-04-16T19:40:55.963Z,99357.53
2023-04-16T19:43:22.758Z,99363.44
2023-04-16T19:45:53.446Z,99370.34
2023-04-16T19:48:21.377Z,99364.31
2023-04-16T19:50:48.695Z,99369.44
2023-04-16T19:53:17.158Z,99373.06
2023-04-16T19:55:44.078Z,99373.91
2023-04-16T19:58:10.950Z,99367.13
2023-04-16T20:00:43.530Z,99368.72
2023-04-16T20:03:10.802Z,99374.88
2023-04-16T20:05:37.902Z,99364.75
2023-04-16T20:08:05.042Z,99368.97
2023-04-16T20:10:31.971Z,99375.75
2023-04-16T20:12:58.863Z,99375.81
2023-04-16T20:15:25.752Z,99376.69
2023-04-16T20:17:53.257Z,99384.50
2023-04-16T20:20:22.591Z,99369.88
2023-04-16T20:22:49.933Z,99366.47
2023-04-16T20:25:18.867Z,99380.13
2023-04-16T20:27:45.849Z,99366.13
2023-04-16T20:30:13.712Z,99344.44
2023-04-16T20:32:40.587Z,99376.56
2023-04-16T20:35:10.710Z,99376.56
2023-04-16T20:37:38.573Z,99352.19
2023-04-16T20:40:09.463Z,99373.97
2023-04-16T20:42:36.407Z,99376.56
2023-04-16T20:45:03.325Z,99371.38
2023-04-16T20:47:30.451Z,99333.72
2023-04-16T20:49:58.151Z,99373.31
2023-04-16T20:52:24.962Z,99377.63
2023-04-16T20:54:52.318Z,99362.34
2023-04-16T20:57:19.238Z,99366.47
2023-04-16T20:59:46.123Z,99368.25
2023-04-16T21:02:13.190Z,99364.75
2023-04-16T21:04:40.468Z,99369.94
2023-04-16T21:07:07.626Z,99365.66
2023-04-16T21:09:35.680Z,99363.81
2023-04-16T21:12:02.734Z,99359.47
2023-04-16T21:14:29.636Z,99358.63
2023-04-16T21:16:56.465Z,99355.97
2023-04-16T21:19:23.281Z,99363.81
2023-04-16T21:21:50.069Z,99366.38
2023-04-16T21:24:16.886Z,99365.59
2023-04-16T21:26:43.689Z,99364.81
2023-04-16T21:29:10.934Z,99366.56
2023-04-16T21:31:38.129Z,99360.69
2023-04-16T21:34:05.002Z,99366.63
2023-04-16T21:36:33.595Z,99371.78
2023-04-16T21:39:00.448Z,99372.66
2023-04-16T21:41:27.617Z,99372.66
2023-04-16T21:43:54.432Z,99367.41
2023-04-16T21:46:21.397Z,99369.16
2023-04-16T21:48:49.635Z,99372.59
2023-04-16T21:51:16.690Z,99373.31
2023-04-16T21:53:43.676Z,99367.53
2023-04-16T21:56:10.688Z,99367.59
2023-04-16T21:58:37.517Z,99366.69
2023-04-16T22:01:04.365Z,99360.69
2023-04-16T22:03:31.395Z,99364.09
2023-04-16T22:06:00.913Z,99363.22
2023-04-16T22:08:32.065Z,99364.09
2023-04-16T22:11:01.483Z,99351.28
2023-04-16T22:13:32.113Z,99358.03
2023-04-16T22:16:01.983Z,99365.00
2023-04-16T22:18:33.067Z,99359.84
2023-04-16T22:21:00.610Z,99359.84
2023-04-16T22:23:27.556Z,99365.00
2023-04-16T22:25:56.720Z,99359.72
2023-04-16T22:28:23.761Z,99357.97
2023-04-16T22:30:51.034Z,99357.13
2023-04-16T22:33:17.928Z,99350.44
2023-04-16T22:35:44.825Z,99342.50
2023-04-16T22:38:11.656Z,99345.75
2023-04-16T22:40:38.462Z,99357.19
2023-04-16T22:43:05.745Z,99351.03
2023-04-16T22:45:32.580Z,99357.97
2023-04-16T22:47:59.423Z,99349.28
2023-04-16T22:50:26.347Z,99347.41
2023-04-16T22:52:53.153Z,99350.72
2023-04-16T22:55:20.030Z,99347.28
2023-04-16T22:57:47.482Z,99349.00
2023-04-16T23:00:17.817Z,99344.03
2023-04-16T23:02:45.472Z,99344.97
2023-04-16T23:05:12.580Z,99345.75
2023-04-16T23:07:39.452Z,99353.50
2023-04-16T23:10:08.446Z,99350.78
2023-04-16T23:12:37.402Z,99349.78
2023-04-16T23:15:06.590Z,99345.63
2023-04-16T23:17:33.947Z,99351.66
2023-04-16T23:20:00.885Z,99350.78
2023-04-16T23:22:27.872Z,99351.81
2023-04-16T23:24:54.775Z,99342.25
2023-04-16T23:27:21.630Z,99350.00
2023-04-16T23:29:48.491Z,99348.28
2023-04-16T23:32:15.305Z,99344.19
2023-04-16T23:34:42.294Z,99338.28
2023-04-16T23:37:09.150Z,99351.28
2023-04-16T23:39:35.963Z,99349.47
2023-04-16T23:42:03.100Z,99345.81
2023-04-16T23:44:29.935Z,99342.25
2023-04-16T23:46:57.386Z,99336.41
2023-04-16T23:49:24.458Z,99331.31
2023-04-16T23:51:51.250Z,99344.03
2023-04-16T23:54:18.142Z,99348.34
2023-04-16T23:56:44.984Z,99343.94
2023-04-16T23:59:12.290Z,99349.00
